Time;durP1;ratioP1;P1;durP2;ratioP2;P2;SDS_P1;SDS_P2;PMS_P1;PMS_P2;Temp;Humidity;BMP_temperature;BMP_pressure;BME280_temperature;BME280_humidity;BME280_pressure;Samples;Min_cycle;Max_cycle;Signal;HPM_P1;HPM_P2
2022/08/04 00:00:30;;;;;;;;;;;;;;;24.57;44.51;98670.38;2054556;28;20103;-68
2022/08/04 00:01:35;;;;;;;;;;;;;;;24.60;44.40;98677.19;2057847;28;19936;-69
2022/08/04 00:02:43;;;;;;;;;;;;;;;24.66;44.07;98679.78;2051489;28;20028;-68
2022/08/04 00:03:51;;;;;;;;;;;;;;;24.61;44.12;98676.16;2059940;28;19933;-68
2022/08/04 00:04:55;;;;;;;;;;;;;;;24.45;44.53;98683.97;2069138;28;19929;-67
2022/08/04 00:05:59;;;;;;;;;;;;;;;24.49;44.64;98676.22;2069791;28;19964;-68
2022/08/04 00:07:06;;;;;;;;;;;;;;;24.53;44.65;98682.78;2063505;28;20180;-70
2022/08/04 00:08:15;;;;;;;;;;;;;;;24.52;44.78;98678.44;2060634;28;19929;-68
2022/08/04 00:09:22;;;;;;;;;;;;;;;24.58;44.73;98679.34;2058555;28;20564;-69
2022/08/04 00:10:26;;;;;;;;;;;;;;;24.59;44.94;98679.09;2055404;28;20417;-68
2022/08/04 00:11:30;;;;;;;;;;;;;;;24.58;44.99;98682.88;2056500;28;19940;-67
2022/08/04 00:12:32;;;;;;;;;;;;;;;24.60;44.79;98683.47;2064558;28;20313;-68
2022/08/04 00:13:39;;;;;;;;;;;;;;;24.56;44.71;98678.78;2064108;28;20094;-69
2022/08/04 00:14:44;;;;;;;;;;;;;;;24.55;44.73;98680.66;2062743;28;20015;-69
2022/08/04 00:15:46;;;;;;;;;;;;;;;24.53;44.84;98683.59;2062420;28;19939;-67
2022/08/04 00:16:51;;;;;;;;;;;;;;;24.57;44.67;98686.66;2062934;28;19940;-68
2022/08/04 00:17:53;;;;;;;;;;;;;;;24.53;45.05;98677.34;2066277;28;20009;-69
2022/08/04 00:18:57;;;;;;;;;;;;;;;24.53;44.62;98677.34;2058346;28;19926;-68
2022/08/04 00:19:59;;;;;;;;;;;;;;;24.58;44.38;98682.88;2062010;28;19966;-70
2022/08/04 00:21:04;;;;;;;;;;;;;;;24.53;44.57;98675.47;2057494;28;19940;-69
2022/08/04 00:22:07;;;;;;;;;;;;;;;24.51;45.00;98693.03;2061997;28;19968;-67
2022/08/04 00:23:09;;;;;;;;;;;;;;;24.46;45.20;98687.50;2058706;28;20020;-68
2022/08/04 00:24:10;;;;;;;;;;;;;;;24.40;44.92;98683.84;2061928;28;19936;-67
2022/08/04 00:25:12;;;;;;;;;;;;;;;24.47;44.96;98681.84;2058796;28;19929;-69
2022/08/04 00:26:15;;;;;;;;;;;;;;;24.50;44.57;98677.84;2059633;28;19933;-67
2022/08/04 00:27:16;;;;;;;;;;;;;;;24.46;44.79;98684.81;2055113;28;19933;-69
2022/08/04 00:28:17;;;;;;;;;;;;;;;24.38;45.05;98680.56;2059680;28;19929;-69
2022/08/04 00:29:19;;;;;;;;;;;;;;;24.37;45.01;98681.63;2059556;28;19983;-70
2022/08/04 00:30:20;;;;;;;;;;;;;;;24.38;45.14;98682.47;2056563;28;19937;-68
2022/08/04 00:31:22;;;;;;;;;;;;;;;24.42;44.89;98679.00;2057823;28;20382;-69
2022/08/04 00:32:25;;;;;;;;;;;;;;;24.41;44.91;98681.97;2057704;28;20485;-68
2022/08/04 00:33:26;;;;;;;;;;;;;;;24.44;44.63;98681.53;2055250;28;20040;-69
2022/08/04 00:34:28;;;;;;;;;;;;;;;24.42;44.59;98683.63;2060611;28;19933;-70
2022/08/04 00:35:29;;;;;;;;;;;;;;;24.41;44.86;98680.09;2067632;28;20497;-70
2022/08/04 00:36:30;;;;;;;;;;;;;;;24.34;44.72;98682.09;2067314;28;20110;-68
2022/08/04 00:37:32;;;;;;;;;;;;;;;24.35;44.63;98672.91;2061838;28;20458;-68
2022/08/04 00:38:33;;;;;;;;;;;;;;;24.38;44.69;98677.03;2059650;28;19925;-67
2022/08/04 00:39:35;;;;;;;;;;;;;;;24.41;44.44;98676.56;2060733;28;20314;-68
2022/08/04 00:40:41;;;;;;;;;;;;;;;24.41;44.33;98680.09;2062041;28;19933;-68
2022/08/04 00:42:03;;;;;;;;;;;;;;;24.34;44.37;98673.97;2056220;28;19936;-67
2022/08/04 00:43:09;;;;;;;;;;;;;;;24.26;44.59;98672.44;2061213;28;21006;-69
2022/08/04 00:44:17;;;;;;;;;;;;;;;24.35;44.27;98677.50;2064418;28;20156;-69
2022/08/04 00:45:29;;;;;;;;;;;;;;;24.37;44.29;98681.63;2061596;28;19929;-69
2022/08/04 00:46:48;;;;;;;;;;;;;;;24.29;44.33;98680.13;2061597;28;20563;-68
2022/08/04 00:47:56;;;;;;;;;;;;;;;24.32;44.56;98678.78;2066086;28;19929;-68
2022/08/04 00:49:16;;;;;;;;;;;;;;;24.28;44.50;98681.16;2059303;28;19929;-67
2022/08/04 00:50:19;;;;;;;;;;;;;;;24.23;44.58;98680.25;2032908;28;19930;-68
2022/08/04 00:51:23;;;;;;;;;;;;;;;24.28;44.63;98686.59;2055120;28;19940;-69
2022/08/04 00:52:31;;;;;;;;;;;;;;;24.25;44.54;98684.38;2057800;28;21379;-68
2022/08/04 00:53:39;;;;;;;;;;;;;;;24.32;44.21;98681.50;2060528;28;19941;-68
2022/08/04 00:54:53;;;;;;;;;;;;;;;24.18;44.55;98678.28;2059576;28;19964;-69
2022/08/04 00:56:08;;;;;;;;;;;;;;;24.22;44.58;98679.44;2057051;28;20413;-68
2022/08/04 00:57:19;;;;;;;;;;;;;;;24.51;44.05;98682.19;2051746;28;19933;-69
2022/08/04 00:58:22;;;;;;;;;;;;;;;24.89;43.45;98683.47;2061620;28;19955;-69
2022/08/04 00:59:31;;;;;;;;;;;;;;;25.16;43.15;98678.28;2057431;28;19933;-68
2022/08/04 01:00:35;;;;;;;;;;;;;;;25.38;42.62;98678.34;2064142;28;19933;-69
2022/08/04 01:01:43;;;;;;;;;;;;;;;25.54;42.46;98679.41;2062170;28;19933;-67
2022/08/04 01:02:50;;;;;;;;;;;;;;;25.69;42.34;98681.56;2063526;28;20196;-68
2022/08/04 01:03:58;;;;;;;;;;;;;;;25.79;41.83;98678.97;2065387;28;19925;-70
2022/08/04 01:05:03;;;;;;;;;;;;;;;25.88;41.96;98677.50;2057053;28;20357;-68
2022/08/04 01:06:08;;;;;;;;;;;;;;;25.94;42.03;98681.94;2068015;28;20017;-68
2022/08/04 01:07:21;;;;;;;;;;;;;;;26.02;42.13;98673.38;2056123;28;19941;-69
2022/08/04 01:08:31;;;;;;;;;;;;;;;26.08;42.34;98668.81;2062630;28;21140;-68
2022/08/04 01:09:41;;;;;;;;;;;;;;;26.17;42.23;98671.91;2063345;28;20151;-69
2022/08/04 01:10:47;;;;;;;;;;;;;;;26.11;46.42;98668.31;2057391;28;20045;-68
2022/08/04 01:11:57;;;;;;;;;;;;;;;25.91;44.53;98678.88;2062428;28;20490;-69
2022/08/04 01:13:19;;;;;;;;;;;;;;;25.52;43.87;98671.53;2059389;28;19932;-69
2022/08/04 01:14:28;;;;;;;;;;;;;;;25.08;42.58;98679.47;2055629;28;19933;-70
2022/08/04 01:15:36;;;;;;;;;;;;;;;24.80;42.06;98674.91;2054731;28;19983;-69
2022/08/04 01:16:44;;;;;;;;;;;;;;;24.59;41.91;98673.69;2062403;28;20180;-70
2022/08/04 01:17:54;;;;;;;;;;;;;;;24.40;41.82;98689.25;2055155;28;20678;-68
2022/08/04 01:18:59;;;;;;;;;;;;;;;24.25;41.14;98678.13;2061193;28;20031;-68
2022/08/04 01:20:02;;;;;;;;;;;;;;;24.16;40.67;98676.84;2064068;28;20225;-68
2022/08/04 01:21:17;;;;;;;;;;;;;;;24.13;40.95;98674.63;2063108;28;20562;-70
2022/08/04 01:22:21;;;;;;;;;;;;;;;24.62;40.48;98662.34;2061624;28;19929;-73
2022/08/04 01:23:43;;;;;;;;;;;;;;;25.03;40.36;98667.69;2060154;28;19925;-68
2022/08/04 01:24:58;;;;;;;;;;;;;;;25.39;39.93;98669.16;2057229;28;19936;-68
2022/08/04 01:26:10;;;;;;;;;;;;;;;25.63;39.34;98673.31;2061857;28;19925;-68
2022/08/04 01:27:18;;;;;;;;;;;;;;;25.83;39.44;98674.72;2056509;28;20541;-68
2022/08/04 01:28:28;;;;;;;;;;;;;;;25.94;39.41;98673.81;2064000;28;20029;-68
2022/08/04 01:29:35;;;;;;;;;;;;;;;26.07;39.88;98678.03;2060416;28;20631;-69
2022/08/04 01:30:37;;;;;;;;;;;;;;;26.14;39.57;98669.72;2062972;28;20002;-68
2022/08/04 01:31:46;;;;;;;;;;;;;;;26.20;39.66;98672.22;2060470;28;20016;-68
2022/08/04 01:32:52;;;;;;;;;;;;;;;26.27;39.80;98666.59;2059839;28;19929;-68
2022/08/04 01:33:55;;;;;;;;;;;;;;;26.33;39.80;98660.16;2062411;28;19925;-68
2022/08/04 01:35:01;;;;;;;;;;;;;;;26.37;40.60;98669.44;2058061;28;19933;-68
2022/08/04 01:36:03;;;;;;;;;;;;;;;26.29;44.87;98667.97;2058706;28;19926;-69
2022/08/04 01:37:08;;;;;;;;;;;;;;;25.99;42.27;98671.16;2062823;28;20604;-69
2022/08/04 01:38:16;;;;;;;;;;;;;;;25.59;42.24;98672.16;2067018;28;19929;-67
2022/08/04 01:40:39;;;;;;;;;;;;;;;25.02;42.75;98672.31;2060028;28;20430;-67
2022/08/04 01:41:39;;;;;;;;;;;;;;;24.91;42.86;98668.59;2063196;28;20326;-68
2022/08/04 01:42:42;;;;;;;;;;;;;;;24.76;42.78;98671.00;2059940;28;20268;-69
2022/08/04 01:43:44;;;;;;;;;;;;;;;24.72;42.73;98667.16;2063366;28;19929;-66
2022/08/04 01:44:48;;;;;;;;;;;;;;;24.69;42.76;98673.88;2066101;28;20138;-68
2022/08/04 01:45:50;;;;;;;;;;;;;;;24.73;42.82;98671.50;2066198;28;19997;-67
2022/08/04 01:46:52;;;;;;;;;;;;;;;24.64;43.13;98665.63;2059723;28;19933;-66
2022/08/04 01:47:54;;;;;;;;;;;;;;;24.65;43.00;98667.28;2058651;28;19935;-68
2022/08/04 01:48:56;;;;;;;;;;;;;;;24.60;43.24;98669.06;2068700;28;19933;-68
2022/08/04 01:50:03;;;;;;;;;;;;;;;24.53;43.69;98661.09;2061045;28;19955;-67
2022/08/04 01:51:06;;;;;;;;;;;;;;;24.60;43.91;98667.22;2058587;28;19940;-67
2022/08/04 01:52:08;;;;;;;;;;;;;;;24.65;43.93;98667.28;2065487;28;19940;-67
2022/08/04 01:53:09;;;;;;;;;;;;;;;24.59;44.17;98657.41;2062673;28;19929;-67
2022/08/04 01:54:11;;;;;;;;;;;;;;;24.55;44.31;98672.53;2067093;28;20588;-67
2022/08/04 01:55:14;;;;;;;;;;;;;;;24.52;44.53;98664.88;2066951;28;19925;-67
2022/08/04 01:56:15;;;;;;;;;;;;;;;24.53;44.55;98663.81;2060371;28;20039;-68
2022/08/04 01:57:18;;;;;;;;;;;;;;;24.48;44.67;98667.22;2064528;28;20300;-69
2022/08/04 01:58:19;;;;;;;;;;;;;;;24.50;44.94;98662.41;2062550;28;20031;-68
2022/08/04 01:59:22;;;;;;;;;;;;;;;24.54;44.71;98657.31;2062306;28;19929;-68
2022/08/04 02:00:26;;;;;;;;;;;;;;;24.50;44.82;98661.56;2065154;28;20272;-67
2022/08/04 02:01:27;;;;;;;;;;;;;;;24.47;44.82;98664.78;2061889;28;19935;-67
2022/08/04 02:02:28;;;;;;;;;;;;;;;24.47;44.88;98660.16;2067620;28;20540;-69
2022/08/04 02:03:30;;;;;;;;;;;;;;;24.44;44.89;98659.84;2064326;28;19933;-67
2022/08/04 02:04:31;;;;;;;;;;;;;;;24.44;44.97;98666.06;2068332;28;20161;-68
2022/08/04 02:05:33;;;;;;;;;;;;;;;24.48;44.71;98663.69;2069798;28;19933;-67
2022/08/04 02:06:39;;;;;;;;;;;;;;;24.47;44.92;98659.34;2072450;28;19925;-70
2022/08/04 02:07:47;;;;;;;;;;;;;;;24.46;44.85;98663.97;2068520;28;19929;-67
2022/08/04 02:08:51;;;;;;;;;;;;;;;24.42;44.89;98654.59;2061977;28;20335;-67
2022/08/04 02:09:59;;;;;;;;;;;;;;;24.36;45.50;98663.72;2061830;28;19937;-69
2022/08/04 02:11:04;;;;;;;;;;;;;;;24.40;45.08;98659.44;2060585;28;19932;-68
2022/08/04 02:12:08;;;;;;;;;;;;;;;24.34;45.29;98659.59;2062286;28;20185;-67
2022/08/04 02:13:15;;;;;;;;;;;;;;;24.30;45.11;98662.78;2061041;28;19925;-68
2022/08/04 02:15:46;;;;;;;;;;;;;;;24.91;44.74;98665.06;2065558;28;19929;-70
2022/08/04 02:16:48;;;;;;;;;;;;;;;25.19;44.04;98662.31;2066820;28;20342;-68
2022/08/04 02:17:54;;;;;;;;;;;;;;;25.41;43.56;98664.28;2066492;28;19931;-70
2022/08/04 02:18:59;;;;;;;;;;;;;;;25.58;43.05;98667.81;2062149;28;19933;-67
2022/08/04 02:20:05;;;;;;;;;;;;;;;25.70;42.97;98659.56;2060561;28;20012;-68
2022/08/04 02:21:06;;;;;;;;;;;;;;;25.82;42.80;98662.97;2057896;28;19941;-68
2022/08/04 02:22:09;;;;;;;;;;;;;;;25.90;42.69;98664.50;2058553;28;19929;-68
2022/08/04 02:23:13;;;;;;;;;;;;;;;25.99;42.63;98673.03;2065855;28;20005;-67
2022/08/04 02:24:18;;;;;;;;;;;;;;;26.04;42.92;98667.66;2059908;28;19933;-69
2022/08/04 02:25:22;;;;;;;;;;;;;;;26.10;42.78;98665.84;2063187;28;19936;-68
2022/08/04 02:26:26;;;;;;;;;;;;;;;26.16;42.68;98662.09;2060343;28;20703;-69
2022/08/04 02:27:28;;;;;;;;;;;;;;;26.17;46.31;98664.59;2062066;28;20268;-69
2022/08/04 02:28:33;;;;;;;;;;;;;;;26.03;45.62;98666.03;2059370;28;19984;-69
2022/08/04 02:29:38;;;;;;;;;;;;;;;25.69;44.54;98665.25;2054618;28;19992;-67
2022/08/04 02:30:46;;;;;;;;;;;;;;;25.31;44.10;98662.22;2063656;28;20049;-70
2022/08/04 02:31:48;;;;;;;;;;;;;;;25.06;42.93;98667.22;2066794;28;20313;-69
2022/08/04 02:32:52;;;;;;;;;;;;;;;24.75;42.64;98661.22;2063593;28;20126;-67
2022/08/04 02:33:58;;;;;;;;;;;;;;;24.51;42.09;98661.31;2061456;28;19933;-67
2022/08/04 02:35:03;;;;;;;;;;;;;;;24.35;41.67;98664.78;2061760;28;20735;-69
2022/08/04 02:36:05;;;;;;;;;;;;;;;24.38;42.09;98669.72;2061416;28;19940;-68
2022/08/04 02:37:07;;;;;;;;;;;;;;;24.77;41.66;98663.69;2057358;28;19971;-67
2022/08/04 02:38:11;;;;;;;;;;;;;;;25.13;41.78;98667.84;2062742;28;20222;-68
2022/08/04 02:39:13;;;;;;;;;;;;;;;25.43;41.24;98662.13;2055150;28;20074;-68
2022/08/04 02:40:19;;;;;;;;;;;;;;;25.64;40.82;98664.09;2063120;28;20398;-68
2022/08/04 02:41:21;;;;;;;;;;;;;;;25.82;40.53;98656.72;2063419;28;19937;-68
2022/08/04 02:42:22;;;;;;;;;;;;;;;25.95;40.71;98659.13;2062060;28;20409;-68
2022/08/04 02:43:25;;;;;;;;;;;;;;;26.04;40.94;98656.78;2060132;28;20461;-68
2022/08/04 02:44:28;;;;;;;;;;;;;;;26.11;40.85;98653.91;2063847;28;19933;-68
2022/08/04 02:45:35;;;;;;;;;;;;;;;26.18;40.44;98655.34;2055418;28;19932;-67
2022/08/04 02:46:38;;;;;;;;;;;;;;;26.25;40.48;98658.69;2068738;28;20483;-68
2022/08/04 02:47:40;;;;;;;;;;;;;;;26.30;40.91;98652.50;2059112;28;20276;-68
2022/08/04 02:48:43;;;;;;;;;;;;;;;26.36;41.09;98659.66;2062235;28;19937;-69
2022/08/04 02:49:44;;;;;;;;;;;;;;;26.41;40.96;98656.16;2060450;28;20190;-68
2022/08/04 02:50:46;;;;;;;;;;;;;;;26.42;44.27;98653.19;2063246;28;20460;-68
2022/08/04 02:51:50;;;;;;;;;;;;;;;26.23;45.00;98655.41;2060873;28;21184;-68
2022/08/04 02:52:51;;;;;;;;;;;;;;;25.95;43.63;98645.53;2057922;28;19925;-68
2022/08/04 02:53:54;;;;;;;;;;;;;;;25.53;43.28;98654.16;2062071;28;19935;-68
2022/08/04 02:55:00;;;;;;;;;;;;;;;25.21;42.48;98647.66;2062679;28;19933;-70
2022/08/04 02:56:01;;;;;;;;;;;;;;;24.93;41.86;98646.63;2056900;28;19955;-68
2022/08/04 02:57:03;;;;;;;;;;;;;;;24.75;41.37;98644.97;2063147;28;20047;-67
2022/08/04 02:58:05;;;;;;;;;;;;;;;24.52;41.18;98651.31;2061463;28;20402;-69
2022/08/04 02:59:08;;;;;;;;;;;;;;;24.35;40.99;98647.69;2060533;28;19975;-69
2022/08/04 03:00:10;;;;;;;;;;;;;;;24.24;40.53;98647.50;2065241;28;20410;-68
2022/08/04 03:01:12;;;;;;;;;;;;;;;24.39;40.91;98644.25;2053276;28;19929;-70
2022/08/04 03:02:14;;;;;;;;;;;;;;;24.81;40.22;98641.25;2066396;28;20341;-69
2022/08/04 03:03:20;;;;;;;;;;;;;;;25.19;40.11;98639.78;2068514;28;20192;-68
2022/08/04 03:04:27;;;;;;;;;;;;;;;25.49;39.48;98644.03;2065072;28;20446;-70
2022/08/04 03:05:33;;;;;;;;;;;;;;;25.73;39.17;98641.94;2072098;28;19944;-69
2022/08/04 03:06:52;;;;;;;;;;;;;;;25.91;39.76;98649.00;2071390;28;20586;-70
2022/08/04 03:08:10;;;;;;;;;;;;;;;26.07;39.44;98638.06;2058953;28;20038;-68
2022/08/04 03:09:27;;;;;;;;;;;;;;;26.18;39.62;98640.94;2070324;28;20087;-67
2022/08/04 03:10:43;;;;;;;;;;;;;;;26.26;39.19;98635.88;2068648;28;20305;-68
2022/08/04 03:11:53;;;;;;;;;;;;;;;26.34;39.32;98640.03;2069226;28;20383;-69
2022/08/04 03:13:21;;;;;;;;;;;;;;;26.41;39.70;98634.38;2068493;28;19941;-68
2022/08/04 03:14:28;;;;;;;;;;;;;;;26.48;39.78;98633.13;2068268;28;20015;-68
2022/08/04 03:15:47;;;;;;;;;;;;;;;26.51;39.90;98629.91;2067944;28;20436;-70
2022/08/04 03:17:19;;;;;;;;;;;;;;;26.58;41.29;98626.16;2069150;28;19971;-68
2022/08/04 03:18:36;;;;;;;;;;;;;;;26.06;41.44;98633.72;2069563;28;20334;-69
2022/08/04 03:19:51;;;;;;;;;;;;;;;26.12;41.61;98636.50;2058511;28;20130;-69
2022/08/04 03:21:10;;;;;;;;;;;;;;;26.25;41.63;98630.69;2059080;28;19940;-68
2022/08/04 03:22:29;;;;;;;;;;;;;;;26.41;41.84;98628.94;2062607;28;20476;-69
2022/08/04 03:23:44;;;;;;;;;;;;;;;26.52;41.65;98628.88;2054489;28;20105;-70
2022/08/04 03:25:03;;;;;;;;;;;;;;;26.59;41.08;98625.94;2037329;28;20579;-67
2022/08/04 03:26:17;;;;;;;;;;;;;;;26.67;40.97;98625.47;2061383;28;19933;-68
2022/08/04 03:27:36;;;;;;;;;;;;;;;26.72;41.08;98625.53;2062641;28;19941;-67
2022/08/04 03:29:01;;;;;;;;;;;;;;;26.78;41.57;98629.13;2061384;28;19933;-68
2022/08/04 03:30:07;;;;;;;;;;;;;;;26.59;43.72;98627.84;2040325;28;19929;-67
2022/08/04 03:31:25;;;;;;;;;;;;;;;26.35;42.77;98636.22;2058954;28;20040;-67
2022/08/04 03:32:41;;;;;;;;;;;;;;;26.45;43.18;98630.91;2048312;28;19933;-68
2022/08/04 03:33:53;;;;;;;;;;;;;;;26.60;42.84;98627.56;2062275;28;20259;-68
2022/08/04 03:35:01;;;;;;;;;;;;;;;26.72;42.62;98624.72;2061684;28;20310;-67
2022/08/04 03:36:27;;;;;;;;;;;;;;;26.81;42.35;98622.34;2060272;28;19933;-67
2022/08/04 03:37:49;;;;;;;;;;;;;;;26.85;42.32;98624.28;2062723;28;19936;-68
2022/08/04 03:39:09;;;;;;;;;;;;;;;26.92;42.49;98626.78;2053274;28;19964;-69
2022/08/04 03:40:29;;;;;;;;;;;;;;;26.83;45.41;98631.03;2061955;28;19929;-68
2022/08/04 03:41:38;;;;;;;;;;;;;;;26.43;43.90;98632.25;2059318;28;19929;-69
2022/08/04 03:42:51;;;;;;;;;;;;;;;25.97;43.31;98637.97;2058290;28;20053;-68
2022/08/04 03:44:07;;;;;;;;;;;;;;;25.63;42.29;98635.31;2059461;28;19929;-69
2022/08/04 03:45:32;;;;;;;;;;;;;;;25.37;41.25;98633.25;2057967;28;20185;-70
2022/08/04 03:46:43;;;;;;;;;;;;;;;25.01;41.12;98631.84;2062234;28;19941;-69
2022/08/04 03:48:06;;;;;;;;;;;;;;;24.75;40.38;98634.13;2057249;28;20218;-69
2022/08/04 03:49:25;;;;;;;;;;;;;;;24.55;40.37;98639.16;2064198;28;20164;-70
2022/08/04 03:50:42;;;;;;;;;;;;;;;24.82;40.03;98640.19;2059542;28;19933;-68
2022/08/04 03:53:20;;;;;;;;;;;;;;;25.78;39.59;98642.03;2061895;28;20188;-68
2022/08/04 03:54:41;;;;;;;;;;;;;;;26.05;38.86;98637.53;2061531;28;19929;-68
2022/08/04 03:56:03;;;;;;;;;;;;;;;26.25;38.98;98636.13;2052359;28;20296;-73
2022/08/04 03:57:16;;;;;;;;;;;;;;;26.38;38.69;98627.56;2058584;28;20623;-72
2022/08/04 03:58:33;;;;;;;;;;;;;;;26.49;39.02;98631.22;2063097;28;19929;-74
2022/08/04 03:59:44;;;;;;;;;;;;;;;26.58;39.02;98639.78;2055705;28;19940;-73
2022/08/04 04:00:51;;;;;;;;;;;;;;;26.65;38.80;98633.06;2063712;28;19965;-74
2022/08/04 04:01:59;;;;;;;;;;;;;;;26.70;39.59;98637.75;2059040;28;19948;-73
2022/08/04 04:03:15;;;;;;;;;;;;;;;26.74;39.70;98638.84;2054855;28;19936;-74
2022/08/04 04:04:33;;;;;;;;;;;;;;;26.79;39.66;98640.81;2070495;28;20110;-74
2022/08/04 04:05:49;;;;;;;;;;;;;;;26.83;40.25;98641.94;2070926;28;19933;-74
2022/08/04 04:07:05;;;;;;;;;;;;;;;26.72;44.04;98643.75;2063147;28;19982;-73
2022/08/04 04:08:21;;;;;;;;;;;;;;;26.28;42.01;98651.94;2061265;28;20383;-74
2022/08/04 04:09:34;;;;;;;;;;;;;;;25.93;41.32;98649.56;2058834;28;20342;-69
2022/08/04 04:10:46;;;;;;;;;;;;;;;25.48;40.68;98645.94;2057597;28;23418;-70
2022/08/04 04:12:06;;;;;;;;;;;;;;;24.95;40.94;98653.44;2058020;28;20614;-69
2022/08/04 04:13:14;;;;;;;;;;;;;;;24.86;42.00;98654.94;2056621;28;20522;-68
2022/08/04 04:14:25;;;;;;;;;;;;;;;24.83;40.42;98651.88;2059675;28;20704;-68
2022/08/04 04:15:37;;;;;;;;;;;;;;;24.54;40.05;98657.31;2057292;28;20210;-69
2022/08/04 04:16:45;;;;;;;;;;;;;;;24.50;39.91;98656.16;2059390;28;19960;-66
2022/08/04 04:17:59;;;;;;;;;;;;;;;24.62;40.01;98656.09;2060510;28;20257;-69
2022/08/04 04:19:12;;;;;;;;;;;;;;;25.08;39.84;98659.66;2061061;28;20358;-70
2022/08/04 04:20:25;;;;;;;;;;;;;;;25.50;39.26;98661.97;2065134;28;20036;-68
2022/08/04 04:21:39;;;;;;;;;;;;;;;25.80;38.87;98662.44;2056446;28;19933;-70
2022/08/04 04:22:47;;;;;;;;;;;;;;;26.03;38.85;98655.16;2060331;28;20395;-69
2022/08/04 04:24:06;;;;;;;;;;;;;;;26.18;39.00;98649.09;2061846;28;19925;-70
2022/08/04 04:25:18;;;;;;;;;;;;;;;26.30;39.02;98650.63;2060077;28;20204;-70
2022/08/04 04:26:28;;;;;;;;;;;;;;;26.40;38.62;98649.91;2060362;28;20780;-69
2022/08/04 04:27:36;;;;;;;;;;;;;;;26.48;38.82;98646.72;2061432;28;20477;-70
2022/08/04 04:28:53;;;;;;;;;;;;;;;26.54;38.96;98650.34;2059633;28;20464;-70
2022/08/04 04:30:00;;;;;;;;;;;;;;;26.60;39.39;98652.03;2056718;28;19925;-69
2022/08/04 04:31:07;;;;;;;;;;;;;;;26.65;39.32;98652.09;2062186;28;20159;-69
2022/08/04 04:32:16;;;;;;;;;;;;;;;26.69;39.62;98652.41;2065819;28;19940;-69
2022/08/04 04:33:32;;;;;;;;;;;;;;;26.74;39.95;98645.16;2058479;28;20390;-68
2022/08/04 04:34:39;;;;;;;;;;;;;;;26.54;43.56;98650.34;2063045;28;20477;-69
2022/08/04 04:35:47;;;;;;;;;;;;;;;26.12;41.94;98655.53;2061670;28;19937;-67
2022/08/04 04:37:00;;;;;;;;;;;;;;;25.72;42.40;98654.72;2056723;28;20010;-66
2022/08/04 04:38:20;;;;;;;;;;;;;;;25.31;40.59;98656.78;2054171;28;19929;-67
2022/08/04 04:39:32;;;;;;;;;;;;;;;24.98;40.53;98652.97;2047042;28;19940;-66
2022/08/04 04:40:39;;;;;;;;;;;;;;;24.70;40.09;98658.44;2060826;28;20395;-68
2022/08/04 04:41:57;;;;;;;;;;;;;;;24.53;39.75;98652.97;2062621;28;21421;-66
2022/08/04 04:43:20;;;;;;;;;;;;;;;24.95;39.93;98656.16;2063420;28;20366;-67
2022/08/04 04:44:40;;;;;;;;;;;;;;;25.43;39.31;98656.69;2048484;28;19936;-67
2022/08/04 04:45:45;;;;;;;;;;;;;;;25.80;38.97;98656.19;2060627;28;20530;-66
2022/08/04 04:46:50;;;;;;;;;;;;;;;26.02;38.47;98657.06;2057223;28;20406;-67
2022/08/04 04:47:55;;;;;;;;;;;;;;;26.18;38.25;98662.69;2050175;28;19929;-67
2022/08/04 04:49:01;;;;;;;;;;;;;;;26.30;38.60;98663.38;2051973;28;19944;-66
2022/08/04 04:50:07;;;;;;;;;;;;;;;26.40;38.25;98658.06;2053786;28;20097;-66
2022/08/04 04:51:18;;;;;;;;;;;;;;;26.47;38.20;98657.88;2053788;28;20024;-67
2022/08/04 04:52:23;;;;;;;;;;;;;;;26.54;38.22;98660.41;2054509;28;23791;-68
2022/08/04 04:53:27;;;;;;;;;;;;;;;26.60;38.76;98662.09;2059387;28;20213;-67
2022/08/04 04:54:32;;;;;;;;;;;;;;;26.65;38.61;98662.16;2051772;28;19940;-67
2022/08/04 04:55:35;;;;;;;;;;;;;;;26.68;39.11;98662.47;2058387;28;19964;-66
2022/08/04 04:56:39;;;;;;;;;;;;;;;26.73;38.81;98667.16;2059074;28;20055;-68
2022/08/04 04:57:41;;;;;;;;;;;;;;;26.75;39.29;98662.28;2058597;28;20224;-67
2022/08/04 04:58:42;;;;;;;;;;;;;;;26.65;44.02;98662.16;2051190;28;19960;-68
2022/08/04 04:59:47;;;;;;;;;;;;;;;26.45;42.41;98670.91;2056652;28;20170;-68
2022/08/04 05:01:07;;;;;;;;;;;;;;;26.10;40.91;98676.72;2057889;28;20247;-67
2022/08/04 05:02:25;;;;;;;;;;;;;;;25.36;40.78;98666.94;2054089;28;20516;-68
2022/08/04 05:03:33;;;;;;;;;;;;;;;25.09;40.28;98670.25;2033877;28;19977;-66
2022/08/04 05:04:52;;;;;;;;;;;;;;;24.85;39.62;98676.84;2048884;28;20399;-66
2022/08/04 05:06:00;;;;;;;;;;;;;;;24.94;40.26;98676.22;2058283;28;19929;-66
2022/08/04 05:07:13;;;;;;;;;;;;;;;25.31;39.62;98672.28;2058593;28;19929;-68
2022/08/04 05:08:30;;;;;;;;;;;;;;;25.71;39.17;98674.78;2048065;28;19964;-69
2022/08/04 05:09:37;;;;;;;;;;;;;;;25.99;42.03;98671.16;2045831;28;19929;-66
2022/08/04 05:10:45;;;;;;;;;;;;;;;25.79;41.43;98676.25;2043415;28;20082;-66
2022/08/04 05:12:00;;;;;;;;;;;;;;;25.54;40.88;98677.50;2061715;28;19964;-68
2022/08/04 05:13:18;;;;;;;;;;;;;;;25.13;39.46;98676.84;2062259;28;19929;-69
2022/08/04 05:14:23;;;;;;;;;;;;;;;24.64;39.72;98681.91;2053432;28;21350;-67
2022/08/04 05:15:27;;;;;;;;;;;;;;;24.47;39.47;98683.75;2058154;28;19929;-67
2022/08/04 05:16:32;;;;;;;;;;;;;;;24.29;38.82;98679.28;2056824;28;19998;-67
2022/08/04 05:17:34;;;;;;;;;;;;;;;24.14;38.68;98679.78;2059256;28;19925;-67
2022/08/04 05:18:38;;;;;;;;;;;;;;;24.04;38.04;98687.69;2060561;28;19925;-67
2022/08/04 05:19:43;;;;;;;;;;;;;;;23.89;37.93;98687.38;2058368;28;20448;-69
2022/08/04 05:20:47;;;;;;;;;;;;;;;23.90;38.04;98686.31;2060315;28;20083;-68
2022/08/04 05:21:50;;;;;;;;;;;;;;;23.79;37.32;98685.25;2063551;28;20022;-69
2022/08/04 05:22:54;;;;;;;;;;;;;;;23.71;37.29;98680.19;2057553;28;21935;-66
2022/08/04 05:23:57;;;;;;;;;;;;;;;23.57;37.08;98685.81;2054408;28;19940;-65
2022/08/04 05:25:04;;;;;;;;;;;;;;;23.54;36.77;98688.16;2053754;28;20500;-67
2022/08/04 05:26:06;;;;;;;;;;;;;;;23.44;36.97;98682.50;2054613;28;24701;-67
2022/08/04 05:27:12;;;;;;;;;;;;;;;23.40;36.82;98685.69;2049859;28;20323;-67
2022/08/04 05:28:15;;;;;;;;;;;;;;;23.39;36.24;98689.44;2059467;28;20198;-69
2022/08/04 05:29:22;;;;;;;;;;;;;;;23.28;36.35;98681.31;2057675;28;19925;-66
2022/08/04 05:30:24;;;;;;;;;;;;;;;23.24;36.09;98682.84;2060130;28;20011;-68
2022/08/04 05:31:26;;;;;;;;;;;;;;;23.11;36.43;98681.16;2060626;28;19937;-68
2022/08/04 05:32:30;;;;;;;;;;;;;;;23.19;36.17;98683.53;2058025;28;19956;-67
2022/08/04 05:33:34;;;;;;;;;;;;;;;23.53;36.13;98683.81;2056784;28;20298;-66
2022/08/04 05:34:40;;;;;;;;;;;;;;;24.03;35.67;98686.06;2042396;28;19980;-67
2022/08/04 05:35:44;;;;;;;;;;;;;;;24.43;35.30;98679.81;2055800;28;20301;-66
2022/08/04 05:36:46;;;;;;;;;;;;;;;24.71;35.10;98682.59;2058918;28;19934;-69
2022/08/04 05:37:49;;;;;;;;;;;;;;;24.92;35.05;98674.84;2058292;28;21100;-65
2022/08/04 05:38:52;;;;;;;;;;;;;;;25.09;34.75;98685.72;2053865;28;20265;-66
2022/08/04 05:39:57;;;;;;;;;;;;;;;25.22;34.89;98688.16;2056208;28;19929;-66
2022/08/04 05:40:58;;;;;;;;;;;;;;;25.34;34.56;98682.63;2054587;28;19933;-66
2022/08/04 05:42:01;;;;;;;;;;;;;;;25.42;34.95;98688.47;2052313;28;20425;-66
2022/08/04 05:43:01;;;;;;;;;;;;;;;25.51;34.91;98686.16;2054275;28;19933;-66
2022/08/04 05:44:03;;;;;;;;;;;;;;;25.58;34.91;98692.25;2062914;28;19929;-66
2022/08/04 05:45:06;;;;;;;;;;;;;;;25.66;34.79;98690.19;2060064;28;19929;-65
2022/08/04 05:46:08;;;;;;;;;;;;;;;25.71;35.20;98691.06;2058456;28;19936;-64
2022/08/04 05:47:10;;;;;;;;;;;;;;;25.75;35.37;98692.25;2053605;28;20237;-66
2022/08/04 05:48:12;;;;;;;;;;;;;;;25.80;35.30;98686.88;2056646;28;20017;-68
2022/08/04 05:49:13;;;;;;;;;;;;;;;25.86;35.60;98690.53;2054842;28;20385;-66
2022/08/04 05:50:15;;;;;;;;;;;;;;;25.90;35.68;98693.56;2057906;28;19987;-66
2022/08/04 05:51:16;;;;;;;;;;;;;;;25.94;35.63;98690.09;2052385;28;19940;-66
2022/08/04 05:52:18;;;;;;;;;;;;;;;25.98;35.79;98698.56;2056898;28;20326;-67
2022/08/04 05:53:20;;;;;;;;;;;;;;;26.03;36.40;98695.94;2054862;28;20250;-65
2022/08/04 05:54:24;;;;;;;;;;;;;;;26.05;36.60;98697.31;2052993;28;20082;-66
2022/08/04 05:55:26;;;;;;;;;;;;;;;26.11;36.86;98694.69;2056244;28;20602;-65
2022/08/04 05:56:27;;;;;;;;;;;;;;;26.13;36.86;98697.94;2061806;28;19940;-68